Big Bear Station Historical Data
Daily Summary for January 29, 2017 Units:  English    Metric   Both
« Previous Day
Next Day »
Daily Weekly Monthly Yearly Custom
  High: Low: Average:
Temperature: 49.8 °F 16.9 °F 31 °F
Dew Point: 22.5 °F 8.3 °F 16.6 °F
Humidity: 76 % 33 % 57 %
Wind Speed: 3.7 mph 0.0 mph 1.4 mph
Wind Gust: -999.0 mph - -
Wind:- - South
Pressure: 30.45 in 30.33 in -
Precipitation: 0.19 in    
Historical Graphs
 
 
Tabular Data for January 29, 2017
Time Temperature Dew Point Pressure Wind Wind Speed Wind Gust Humidity Rainfall Rate (Hourly)
00:03 19.6 °F 11.4 °F 30.45 in Calm   -999.0 mph 70 % 0 in
00:18 19.4 °F 11.8 °F 30.45 in Calm   -999.0 mph 72 % 0 in
00:33 18.9 °F 11.7 °F 30.44 in Calm   -999.0 mph 73 % 0 in
00:49 18.3 °F 12.0 °F 30.44 in Calm   -999.0 mph 76 % 0 in
01:04 17.6 °F 11.0 °F 30.44 in Calm   -999.0 mph 75 % 0 in
01:20 17.4 °F 11.1 °F 30.44 in Calm   -999.0 mph 76 % 0 in
01:35 17.1 °F 10.2 °F 30.44 in Calm   -999.0 mph 74 % 0 in
01:50 16.9 °F 10.0 °F 30.44 in South 1.7 mph -999.0 mph 74 % 0 in
02:05 16.9 °F 10.3 °F 30.44 in Calm   -999.0 mph 75 % 0 in
02:20 17.1 °F 10.5 °F 30.44 in Calm   -999.0 mph 75 % 0 in
02:36 17.1 °F 10.5 °F 30.44 in Calm   -999.0 mph 75 % 0 in
02:51 17.1 °F 9.9 °F 30.43 in Calm   -999.0 mph 73 % 0 in
03:06 17.2 °F 10.0 °F 30.43 in SSE 3.2 mph -999.0 mph 73 % 0 in
03:22 17.4 °F 9.0 °F 30.42 in SSE 2.7 mph -999.0 mph 69 % 0 in
03:37 18.1 °F 8.3 °F 30.42 in SSE 2.7 mph -999.0 mph 65 % 0 in
03:52 18.0 °F 9.2 °F 30.42 in SSE 2.2 mph -999.0 mph 68 % 0 in
04:07 17.4 °F 9.3 °F 30.42 in SE 2.2 mph -999.0 mph 70 % 0 in
04:23 16.9 °F 10.3 °F 30.41 in SSE 2.2 mph -999.0 mph 75 % 0 in
04:38 16.9 °F 10.3 °F 30.41 in SSE 1.1 mph -999.0 mph 75 % 0 in
04:53 17.2 °F 10.9 °F 30.41 in SSE 2.2 mph -999.0 mph 76 % 0 in
05:09 17.2 °F 10.6 °F 30.42 in Calm   -999.0 mph 75 % 0 in
05:24 17.8 °F 10.3 °F 30.41 in South 2.7 mph -999.0 mph 72 % 0 in
05:40 19.4 °F 10.6 °F 30.41 in SSE 3.2 mph -999.0 mph 68 % 0 in
05:55 20.5 °F 10.6 °F 30.42 in Calm   -999.0 mph 65 % 0 in
06:10 21.2 °F 11.3 °F 30.42 in South 1.1 mph -999.0 mph 65 % 0 in
06:25 21.4 °F 11.1 °F 30.43 in Calm   -999.0 mph 64 % 0 in
06:40 21.4 °F 11.1 °F 30.42 in Calm   -999.0 mph 64 % 0 in
06:56 22.8 °F 11.7 °F 30.42 in SSE 2.7 mph -999.0 mph 62 % 0 in
07:11 23.7 °F 11.8 °F 30.42 in South 3.2 mph -999.0 mph 60 % 0 in
07:26 24.3 °F 12.0 °F 30.43 in South 3.2 mph -999.0 mph 59 % 0 in
07:41 24.1 °F 11.4 °F 30.43 in Calm   -999.0 mph 58 % 0 in
07:56 24.6 °F 13.1 °F 30.43 in Calm   -999.0 mph 61 % 0 in
08:12 25.9 °F 14.7 °F 30.43 in South 2.2 mph -999.0 mph 62 % 0 in
08:27 27.3 °F 14.5 °F 30.43 in SSE 1.7 mph -999.0 mph 58 % 0 in
08:42 29.3 °F 16.3 °F 30.43 in Calm   -999.0 mph 58 % 0 in
08:57 32.2 °F 16.5 °F 30.43 in ESE 2.2 mph -999.0 mph 52 % 0 in
09:13 34.7 °F 17.0 °F 30.43 in Calm   -999.0 mph 48 % 0 in
09:28 36.5 °F 17.2 °F 30.43 in NNE 1.7 mph -999.0 mph 45 % 0 in
09:44 37.8 °F 17.8 °F 30.43 in SW 1.7 mph -999.0 mph 44 % 0 in
09:59 39.0 °F 18.4 °F 30.43 in Calm   -999.0 mph 43 % 0 in
10:14 41.4 °F 18.9 °F 30.43 in NE 1.7 mph -999.0 mph 40 % 0 in
10:29 42.6 °F 18.7 °F 30.42 in NNW 2.7 mph -999.0 mph 38 % 0 in
10:44 43.2 °F 19.3 °F 30.42 in West 2.2 mph -999.0 mph 38 % 0 in
11:00 44.4 °F 20.4 °F 30.42 in North 1.7 mph -999.0 mph 38 % 0 in
11:15 45.1 °F 19.7 °F 30.42 in WNW 1.7 mph -999.0 mph 36 % 0 in
11:30 44.6 °F 19.9 °F 30.41 in WNW 3.2 mph -999.0 mph 37 % 0 in
11:45 47.3 °F 20.3 °F 30.41 in NNW 2.7 mph -999.0 mph 34 % 0 in
12:00 47.3 °F 20.3 °F 30.40 in West 3.2 mph -999.0 mph 34 % 0 in
12:16 47.7 °F 22.0 °F 30.39 in SE 2.7 mph -999.0 mph 36 % 0 in
12:31 48.2 °F 21.8 °F 30.38 in NW 3.7 mph -999.0 mph 35 % 0 in
12:46 49.3 °F 21.4 °F 30.37 in NNE 1.7 mph -999.0 mph 33 % 0 in
13:01 47.8 °F 22.1 °F 30.37 in NNW 2.2 mph -999.0 mph 36 % 0 in
13:16 49.8 °F 21.8 °F 30.37 in ENE 2.2 mph -999.0 mph 33 % 0 in
13:32 49.8 °F 21.8 °F 30.36 in West 2.2 mph -999.0 mph 33 % 0 in
13:47 49.3 °F 22.1 °F 30.36 in Calm   -999.0 mph 34 % 0 in
14:02 48.7 °F 21.6 °F 30.35 in South 1.1 mph -999.0 mph 34 % 0 in
14:17 48.2 °F 22.5 °F 30.35 in ESE 1.1 mph -999.0 mph 36 % 0 in
14:33 46.6 °F 19.7 °F 30.36 in ESE 1.7 mph -999.0 mph 34 % 0 in
14:48 45.9 °F 22.3 °F 30.35 in ESE 2.2 mph -999.0 mph 39 % 0 in
15:03 45.5 °F 20.1 °F 30.35 in Calm   -999.0 mph 36 % 0 in
15:18 45.0 °F 22.1 °F 30.36 in WNW 2.2 mph -999.0 mph 40 % 0 in
15:33 44.1 °F 19.5 °F 30.36 in ESE 1.7 mph -999.0 mph 37 % 0 in
15:49 43.3 °F 21.2 °F 30.36 in Calm   -999.0 mph 41 % 0 in
16:04 42.4 °F 20.9 °F 30.36 in SE 1.7 mph -999.0 mph 42 % 0 in
16:19 41.5 °F 20.1 °F 30.36 in SW 2.2 mph -999.0 mph 42 % 0 in
16:34 40.5 °F 19.7 °F 30.36 in Calm   -999.0 mph 43 % 0 in
16:49 39.7 °F 20.1 °F 30.36 in East 2.2 mph -999.0 mph 45 % 0 in
17:05 38.5 °F 20.0 °F 30.36 in Calm   -999.0 mph 47 % 0 in
17:20 37.2 °F 20.3 °F 30.36 in Calm   -999.0 mph 50 % 0 in
17:35 36.0 °F 20.5 °F 30.36 in Calm   -999.0 mph 53 % 0 in
17:50 34.0 °F 22.3 °F 30.36 in SSE 1.7 mph -999.0 mph 62 % 0 in
18:05 33.6 °F 22.3 °F 30.36 in SE 1.7 mph -999.0 mph 63 % 0 in
18:21 32.7 °F 21.1 °F 30.36 in South 2.2 mph -999.0 mph 62 % 0 in
18:36 32.5 °F 20.9 °F 30.36 in South 2.2 mph -999.0 mph 62 % 0 in
18:51 32.0 °F 20.4 °F 30.36 in South 2.7 mph -999.0 mph 62 % 0 in
19:07 31.5 °F 19.6 °F 30.35 in South 2.2 mph -999.0 mph 61 % 0 in
19:22 31.1 °F 18.4 °F 30.35 in South 1.7 mph -999.0 mph 59 % 0 in
19:37 30.9 °F 16.6 °F 30.35 in Calm   -999.0 mph 55 % 0 in
19:52 31.1 °F 18.8 °F 30.35 in SSE 2.2 mph -999.0 mph 60 % 0 in
20:07 30.9 °F 19.4 °F 30.36 in South 2.2 mph -999.0 mph 62 % 0 in
20:23 30.6 °F 19.1 °F 30.36 in SE 1.7 mph -999.0 mph 62 % 0 in
20:38 30.0 °F 20.0 °F 30.36 in South 1.1 mph -999.0 mph 66 % 0 in
20:53 29.5 °F 20.9 °F 30.36 in Calm   -999.0 mph 70 % 0 in
21:08 29.3 °F 19.0 °F 30.36 in ESE 2.2 mph -999.0 mph 65 % 0 in
21:24 28.6 °F 21.0 °F 30.36 in SSE 2.2 mph -999.0 mph 73 % 0 in
21:39 27.3 °F 20.4 °F 30.36 in Calm   -999.0 mph 75 % 0 in
21:54 27.5 °F 19.7 °F 30.36 in South 3.2 mph -999.0 mph 72 % 0 in
22:09 27.1 °F 18.9 °F 30.35 in SSE 2.2 mph -999.0 mph 71 % 0 in
22:24 26.8 °F 17.7 °F 30.35 in Calm   -999.0 mph 68 % 0 in
22:40 26.8 °F 17.7 °F 30.35 in South 1.7 mph -999.0 mph 68 % 0 in
22:55 27.0 °F 17.5 °F 30.34 in South 2.2 mph -999.0 mph 67 % 0 in
23:10 26.8 °F 17.3 °F 30.34 in Calm   -999.0 mph 67 % 0 in
23:25 25.7 °F 16.6 °F 30.34 in Calm   -999.0 mph 68 % 0 in
23:40 25.9 °F 17.5 °F 30.34 in Calm   -999.0 mph 70 % 0 in
23:56 25.5 °F 18.7 °F 30.33 in South 2.2 mph -999.0 mph 75 % 0 in
Big Bear CA Weather
Compliments of Weather Underground - 1.5 mb